sensor_id;sensor_type;location;lat;lon;timestamp;pressure;altitude;pressure_sealevel;temperature;humidity
21817;BME280;13247;47.504;7.382;2023-04-15T00:01:20;96326.94;;;9.36;100.00
21817;BME280;13247;47.504;7.382;2023-04-15T00:04:05;96324.19;;;9.79;100.00
21817;BME280;13247;47.504;7.382;2023-04-15T00:06:51;96321.97;;;10.09;100.00
21817;BME280;13247;47.504;7.382;2023-04-15T00:09:40;96326.59;;;9.84;100.00
21817;BME280;13247;47.504;7.382;2023-04-15T00:12:26;96319.66;;;10.01;100.00
21817;BME280;13247;47.504;7.382;2023-04-15T00:15:11;96319.66;;;10.01;100.00
21817;BME280;13247;47.504;7.382;2023-04-15T00:17:55;96316.56;;;9.93;100.00
21817;BME280;13247;47.504;7.382;2023-04-15T00:20:40;96320.19;;;9.71;100.00
21817;BME280;13247;47.504;7.382;2023-04-15T00:23:25;96308.09;;;9.68;100.00
21817;BME280;13247;47.504;7.382;2023-04-15T00:26:10;96314.97;;;9.71;100.00
21817;BME280;13247;47.504;7.382;2023-04-15T00:28:55;96314.78;;;9.75;100.00
21817;BME280;13247;47.504;7.382;2023-04-15T00:31:40;96309.84;;;9.68;100.00
21817;BME280;13247;47.504;7.382;2023-04-15T00:34:26;96311.66;;;9.67;100.00
21817;BME280;13247;47.504;7.382;2023-04-15T00:37:12;96300.25;;;9.68;100.00
21817;BME280;13247;47.504;7.382;2023-04-15T00:39:57;96301.81;;;9.91;100.00
21817;BME280;13247;47.504;7.382;2023-04-15T00:42:42;96299.44;;;10.05;100.00
21817;BME280;13247;47.504;7.382;2023-04-15T00:45:27;96294.63;;;9.57;100.00
21817;BME280;13247;47.504;7.382;2023-04-15T00:48:12;96296.34;;;9.58;100.00
21817;BME280;13247;47.504;7.382;2023-04-15T00:50:57;96309.88;;;9.86;100.00
21817;BME280;13247;47.504;7.382;2023-04-15T00:53:41;96305.19;;;9.74;100.00
21817;BME280;13247;47.504;7.382;2023-04-15T00:56:28;96312.78;;;9.41;100.00
21817;BME280;13247;47.504;7.382;2023-04-15T00:59:14;96306.88;;;9.57;100.00
21817;BME280;13247;47.504;7.382;2023-04-15T01:02:00;96299.81;;;9.59;100.00
21817;BME280;13247;47.504;7.382;2023-04-15T01:04:45;96300.91;;;9.53;100.00
21817;BME280;13247;47.504;7.382;2023-04-15T01:07:31;96296.53;;;9.54;100.00
21817;BME280;13247;47.504;7.382;2023-04-15T01:10:16;96300.69;;;9.39;100.00
21817;BME280;13247;47.504;7.382;2023-04-15T01:13:01;96300.00;;;9.54;100.00
21817;BME280;13247;47.504;7.382;2023-04-15T01:15:46;96301.47;;;9.41;100.00
21817;BME280;13247;47.504;7.382;2023-04-15T01:18:32;96293.91;;;9.33;100.00
21817;BME280;13247;47.504;7.382;2023-04-15T01:21:17;96291.69;;;9.44;100.00
21817;BME280;13247;47.504;7.382;2023-04-15T01:24:10;96287.00;;;9.32;100.00
21817;BME280;13247;47.504;7.382;2023-04-15T01:26:55;96285.50;;;9.47;100.00
21817;BME280;13247;47.504;7.382;2023-04-15T01:29:40;96283.75;;;9.66;100.00
21817;BME280;13247;47.504;7.382;2023-04-15T01:32:25;96279.28;;;9.88;100.00
21817;BME280;13247;47.504;7.382;2023-04-15T01:35:10;96279.28;;;9.88;100.00
21817;BME280;13247;47.504;7.382;2023-04-15T01:37:58;96276.78;;;9.85;100.00
21817;BME280;13247;47.504;7.382;2023-04-15T01:40:45;96274.56;;;9.76;100.00
21817;BME280;13247;47.504;7.382;2023-04-15T01:43:30;96277.38;;;9.53;100.00
21817;BME280;13247;47.504;7.382;2023-04-15T01:46:14;96278.03;;;9.38;100.00
21817;BME280;13247;47.504;7.382;2023-04-15T01:49:00;96274.63;;;9.36;100.00
21817;BME280;13247;47.504;7.382;2023-04-15T01:51:44;96277.50;;;9.50;100.00
21817;BME280;13247;47.504;7.382;2023-04-15T01:54:29;96278.59;;;9.65;100.00
21817;BME280;13247;47.504;7.382;2023-04-15T01:57:14;96277.84;;;9.42;100.00
21817;BME280;13247;47.504;7.382;2023-04-15T01:59:59;96279.03;;;9.15;100.00
21817;BME280;13247;47.504;7.382;2023-04-15T02:02:43;96280.41;;;9.04;100.00
21817;BME280;13247;47.504;7.382;2023-04-15T02:05:28;96281.91;;;9.09;100.00
21817;BME280;13247;47.504;7.382;2023-04-15T02:08:12;96279.16;;;9.12;100.00
21817;BME280;13247;47.504;7.382;2023-04-15T02:10:57;96276.03;;;9.24;100.00
21817;BME280;13247;47.504;7.382;2023-04-15T02:13:42;96275.16;;;9.24;100.00
21817;BME280;13247;47.504;7.382;2023-04-15T02:16:27;96275.44;;;9.18;100.00
21817;BME280;13247;47.504;7.382;2023-04-15T02:19:11;96270.84;;;9.23;100.00
21817;BME280;13247;47.504;7.382;2023-04-15T02:21:57;96279.16;;;9.12;100.00
21817;BME280;13247;47.504;7.382;2023-04-15T02:24:41;96267.72;;;9.35;100.00
21817;BME280;13247;47.504;7.382;2023-04-15T02:27:26;96271.22;;;9.54;100.00
21817;BME280;13247;47.504;7.382;2023-04-15T02:30:12;96263.72;;;9.65;100.00
21817;BME280;13247;47.504;7.382;2023-04-15T02:32:57;96275.06;;;9.66;100.00
21817;BME280;13247;47.504;7.382;2023-04-15T02:35:42;96269.06;;;9.82;100.00
21817;BME280;13247;47.504;7.382;2023-04-15T02:38:28;96273.38;;;9.83;100.00
21817;BME280;13247;47.504;7.382;2023-04-15T02:41:14;96267.69;;;10.12;100.00
21817;BME280;13247;47.504;7.382;2023-04-15T02:43:59;96270.41;;;9.91;100.00
21817;BME280;13247;47.504;7.382;2023-04-15T02:46:43;96274.66;;;9.93;100.00
21817;BME280;13247;47.504;7.382;2023-04-15T02:49:29;96269.78;;;9.67;100.00
21817;BME280;13247;47.504;7.382;2023-04-15T02:52:14;96272.63;;;9.61;100.00
21817;BME280;13247;47.504;7.382;2023-04-15T02:54:59;96268.75;;;9.11;100.00
21817;BME280;13247;47.504;7.382;2023-04-15T02:57:46;96278.03;;;8.78;100.00
21817;BME280;13247;47.504;7.382;2023-04-15T03:00:30;96274.56;;;8.77;100.00
21817;BME280;13247;47.504;7.382;2023-04-15T03:03:15;96272.44;;;8.87;100.00
21817;BME280;13247;47.504;7.382;2023-04-15T03:06:00;96273.00;;;9.13;100.00
21817;BME280;13247;47.504;7.382;2023-04-15T03:08:45;96271.81;;;9.40;100.00
21817;BME280;13247;47.504;7.382;2023-04-15T03:11:30;96271.53;;;9.67;100.00
21817;BME280;13247;47.504;7.382;2023-04-15T03:14:15;96290.44;;;9.53;100.00
21817;BME280;13247;47.504;7.382;2023-04-15T03:17:00;96286.88;;;9.35;100.00
21817;BME280;13247;47.504;7.382;2023-04-15T03:19:45;96280.78;;;8.95;100.00
21817;BME280;13247;47.504;7.382;2023-04-15T03:22:30;96279.72;;;8.79;100.00
21817;BME280;13247;47.504;7.382;2023-04-15T03:25:15;96273.22;;;9.09;100.00
21817;BME280;13247;47.504;7.382;2023-04-15T03:28:00;96274.03;;;9.29;100.00
21817;BME280;13247;47.504;7.382;2023-04-15T03:30:44;96268.97;;;9.26;100.00
21817;BME280;13247;47.504;7.382;2023-04-15T03:33:29;96271.59;;;9.26;100.00
21817;BME280;13247;47.504;7.382;2023-04-15T03:36:14;96264.81;;;9.41;100.00
21817;BME280;13247;47.504;7.382;2023-04-15T03:39:00;96262.69;;;9.69;100.00
21817;BME280;13247;47.504;7.382;2023-04-15T03:41:45;96275.13;;;9.64;100.00
21817;BME280;13247;47.504;7.382;2023-04-15T03:44:30;96268.53;;;9.56;100.00
21817;BME280;13247;47.504;7.382;2023-04-15T03:47:16;96268.97;;;9.65;100.00
21817;BME280;13247;47.504;7.382;2023-04-15T03:50:00;96278.03;;;9.58;100.00
21817;BME280;13247;47.504;7.382;2023-04-15T03:52:45;96274.25;;;9.45;100.00
21817;BME280;13247;47.504;7.382;2023-04-15T03:55:29;96272.00;;;9.36;100.00
21817;BME280;13247;47.504;7.382;2023-04-15T03:58:14;96274.34;;;9.42;100.00
21817;BME280;13247;47.504;7.382;2023-04-15T04:00:59;96275.56;;;9.35;100.00
21817;BME280;13247;47.504;7.382;2023-04-15T04:03:44;96278.03;;;9.38;100.00
21817;BME280;13247;47.504;7.382;2023-04-15T04:06:28;96286.16;;;9.52;100.00
21817;BME280;13247;47.504;7.382;2023-04-15T04:09:14;96272.41;;;9.47;100.00
21817;BME280;13247;47.504;7.382;2023-04-15T04:11:59;96282.91;;;9.27;100.00
21817;BME280;13247;47.504;7.382;2023-04-15T04:14:43;96282.63;;;9.33;100.00
21817;BME280;13247;47.504;7.382;2023-04-15T04:17:28;96282.09;;;9.45;100.00
21817;BME280;13247;47.504;7.382;2023-04-15T04:20:13;96289.34;;;9.38;100.00
21817;BME280;13247;47.504;7.382;2023-04-15T04:22:57;96288.09;;;9.47;100.00
21817;BME280;13247;47.504;7.382;2023-04-15T04:25:42;96290.44;;;9.53;100.00
21817;BME280;13247;47.504;7.382;2023-04-15T04:28:27;96295.38;;;9.40;100.00
21817;BME280;13247;47.504;7.382;2023-04-15T04:31:12;96294.69;;;9.56;100.00
21817;BME280;13247;47.504;7.382;2023-04-15T04:33:56;96280.94;;;9.71;100.00
21817;BME280;13247;47.504;7.382;2023-04-15T04:36:41;96285.09;;;9.56;100.00
21817;BME280;13247;47.504;7.382;2023-04-15T04:39:25;96291.19;;;9.36;100.00
21817;BME280;13247;47.504;7.382;2023-04-15T04:42:12;96291.00;;;9.01;100.00
21817;BME280;13247;47.504;7.382;2023-04-15T04:44:57;96298.00;;;8.79;100.00
21817;BME280;13247;47.504;7.382;2023-04-15T04:47:42;96304.94;;;8.80;100.00
21817;BME280;13247;47.504;7.382;2023-04-15T04:50:27;96309.31;;;8.57;100.00
21817;BME280;13247;47.504;7.382;2023-04-15T04:53:11;96303.91;;;8.62;100.00
21817;BME280;13247;47.504;7.382;2023-04-15T04:55:56;96310.88;;;8.83;100.00
21817;BME280;13247;47.504;7.382;2023-04-15T04:58:41;96303.72;;;9.08;100.00
21817;BME280;13247;47.504;7.382;2023-04-15T05:01:26;96304.59;;;9.29;100.00
21817;BME280;13247;47.504;7.382;2023-04-15T05:04:11;96303.69;;;9.50;100.00
21817;BME280;13247;47.504;7.382;2023-04-15T05:06:55;96305.47;;;9.68;100.00
21817;BME280;13247;47.504;7.382;2023-04-15T05:09:40;96304.31;;;9.55;100.00
21817;BME280;13247;47.504;7.382;2023-04-15T05:12:25;96308.25;;;9.45;100.00
21817;BME280;13247;47.504;7.382;2023-04-15T05:15:10;96314.28;;;9.27;100.00
21817;BME280;13247;47.504;7.382;2023-04-15T05:17:56;96314.78;;;9.15;100.00
21817;BME280;13247;47.504;7.382;2023-04-15T05:20:41;96312.56;;;9.06;100.00
21817;BME280;13247;47.504;7.382;2023-04-15T05:23:26;96316.75;;;9.10;100.00
21817;BME280;13247;47.504;7.382;2023-04-15T05:26:10;96315.56;;;8.97;100.00
21817;BME280;13247;47.504;7.382;2023-04-15T05:28:55;96307.28;;;9.07;100.00
21817;BME280;13247;47.504;7.382;2023-04-15T05:31:40;96312.34;;;9.10;100.00
21817;BME280;13247;47.504;7.382;2023-04-15T05:34:24;96317.69;;;9.29;100.00
21817;BME280;13247;47.504;7.382;2023-04-15T05:37:09;96314.34;;;9.45;100.00
21817;BME280;13247;47.504;7.382;2023-04-15T05:39:54;96313.28;;;9.29;100.00
21817;BME280;13247;47.504;7.382;2023-04-15T05:42:40;96320.94;;;9.34;100.00
21817;BME280;13247;47.504;7.382;2023-04-15T05:45:24;96321.09;;;9.31;100.00
21817;BME280;13247;47.504;7.382;2023-04-15T05:48:09;96318.28;;;9.35;100.00
21817;BME280;13247;47.504;7.382;2023-04-15T05:50:54;96314.94;;;9.52;100.00
21817;BME280;13247;47.504;7.382;2023-04-15T05:53:39;96314.81;;;9.35;100.00
21817;BME280;13247;47.504;7.382;2023-04-15T05:56:25;96315.13;;;9.47;100.00
21817;BME280;13247;47.504;7.382;2023-04-15T05:59:10;96313.03;;;9.35;100.00
21817;BME280;13247;47.504;7.382;2023-04-15T06:01:54;96316.91;;;9.27;100.00
21817;BME280;13247;47.504;7.382;2023-04-15T06:04:39;96313.16;;;9.32;100.00
21817;BME280;13247;47.504;7.382;2023-04-15T06:07:24;96318.47;;;9.31;100.00
21817;BME280;13247;47.504;7.382;2023-04-15T06:10:09;96317.91;;;9.23;100.00
21817;BME280;13247;47.504;7.382;2023-04-15T06:12:54;96326.19;;;9.14;100.00
21817;BME280;13247;47.504;7.382;2023-04-15T06:15:39;96320.94;;;9.34;100.00
21817;BME280;13247;47.504;7.382;2023-04-15T06:18:24;96323.25;;;9.41;100.00
21817;BME280;13247;47.504;7.382;2023-04-15T06:21:09;96316.28;;;9.40;100.00
21817;BME280;13247;47.504;7.382;2023-04-15T06:23:54;96314.34;;;9.45;100.00
21817;BME280;13247;47.504;7.382;2023-04-15T06:26:40;96316.38;;;9.39;100.00
21817;BME280;13247;47.504;7.382;2023-04-15T06:29:24;96317.53;;;9.32;100.00
21817;BME280;13247;47.504;7.382;2023-04-15T06:32:10;96320.03;;;9.35;100.00
21817;BME280;13247;47.504;7.382;2023-04-15T06:34:55;96310.69;;;9.49;100.00
21817;BME280;13247;47.504;7.382;2023-04-15T06:37:39;96305.25;;;9.54;100.00
21817;BME280;13247;47.504;7.382;2023-04-15T06:40:24;96306.63;;;9.63;100.00
21817;BME280;13247;47.504;7.382;2023-04-15T06:43:09;96308.03;;;9.70;100.00
21817;BME280;13247;47.504;7.382;2023-04-15T06:45:54;96310.72;;;9.68;100.00
21817;BME280;13247;47.504;7.382;2023-04-15T06:48:39;96313.31;;;9.68;100.00
21817;BME280;13247;47.504;7.382;2023-04-15T06:51:24;96306.75;;;9.78;100.00
21817;BME280;13247;47.504;7.382;2023-04-15T06:54:08;96316.59;;;9.73;100.00
21817;BME280;13247;47.504;7.382;2023-04-15T06:56:53;96314.25;;;9.67;100.00
21817;BME280;13247;47.504;7.382;2023-04-15T06:59:37;96314.97;;;9.71;100.00
21817;BME280;13247;47.504;7.382;2023-04-15T07:02:22;96308.84;;;9.90;100.00
21817;BME280;13247;47.504;7.382;2023-04-15T07:05:07;96305.50;;;10.05;100.00
21817;BME280;13247;47.504;7.382;2023-04-15T07:07:52;96306.13;;;10.31;100.00
21817;BME280;13247;47.504;7.382;2023-04-15T07:10:36;96309.50;;;10.51;100.00
21817;BME280;13247;47.504;7.382;2023-04-15T07:13:21;96307.09;;;10.47;100.00
21817;BME280;13247;47.504;7.382;2023-04-15T07:16:06;96303.06;;;10.40;100.00
21817;BME280;13247;47.504;7.382;2023-04-15T07:18:50;96303.06;;;10.40;100.00
21817;BME280;13247;47.504;7.382;2023-04-15T07:21:36;96310.34;;;10.33;100.00
21817;BME280;13247;47.504;7.382;2023-04-15T07:24:21;96302.47;;;10.52;100.00
21817;BME280;13247;47.504;7.382;2023-04-15T07:27:06;96303.81;;;10.60;100.00
21817;BME280;13247;47.504;7.382;2023-04-15T07:29:52;96303.19;;;10.55;100.00
21817;BME280;13247;47.504;7.382;2023-04-15T07:32:37;96304.81;;;10.39;100.00
21817;BME280;13247;47.504;7.382;2023-04-15T07:35:21;96309.94;;;10.42;100.00
21817;BME280;13247;47.504;7.382;2023-04-15T07:38:07;96308.75;;;10.31;100.00
21817;BME280;13247;47.504;7.382;2023-04-15T07:40:51;96305.38;;;10.46;100.00
21817;BME280;13247;47.504;7.382;2023-04-15T07:43:36;96315.38;;;10.38;100.00
21817;BME280;13247;47.504;7.382;2023-04-15T07:46:21;96310.91;;;10.58;100.00
21817;BME280;13247;47.504;7.382;2023-04-15T07:49:07;96315.16;;;10.61;100.00
21817;BME280;13247;47.504;7.382;2023-04-15T07:51:52;96313.84;;;10.34;100.00
21817;BME280;13247;47.504;7.382;2023-04-15T07:54:37;96316.81;;;10.45;100.00
21817;BME280;13247;47.504;7.382;2023-04-15T07:57:22;96313.06;;;10.32;100.00
21817;BME280;13247;47.504;7.382;2023-04-15T08:00:07;96309.34;;;10.54;100.00
21817;BME280;13247;47.504;7.382;2023-04-15T08:02:51;96304.56;;;10.45;100.00
21817;BME280;13247;47.504;7.382;2023-04-15T08:05:37;96310.56;;;10.28;100.00
21817;BME280;13247;47.504;7.382;2023-04-15T08:08:21;96311.31;;;9.93;100.00
21817;BME280;13247;47.504;7.382;2023-04-15T08:11:06;96306.84;;;10.34;100.00
21817;BME280;13247;47.504;7.382;2023-04-15T08:13:52;96316.88;;;10.24;100.00
21817;BME280;13247;47.504;7.382;2023-04-15T08:16:36;96310.72;;;10.44;100.00
21817;BME280;13247;47.504;7.382;2023-04-15T08:19:21;96316.88;;;10.62;100.00
21817;BME280;13247;47.504;7.382;2023-04-15T08:22:08;96309.44;;;10.53;100.00
21817;BME280;13247;47.504;7.382;2023-04-15T08:24:53;96319.56;;;10.42;100.00
21817;BME280;13247;47.504;7.382;2023-04-15T08:27:38;96321.38;;;10.58;100.00
21817;BME280;13247;47.504;7.382;2023-04-15T08:30:22;96322.81;;;10.65;100.00
21817;BME280;13247;47.504;7.382;2023-04-15T08:33:07;96318.53;;;10.63;100.00
21817;BME280;13247;47.504;7.382;2023-04-15T08:35:51;96328.75;;;10.69;100.00
21817;BME280;13247;47.504;7.382;2023-04-15T08:38:36;96325.75;;;10.76;100.00
21817;BME280;13247;47.504;7.382;2023-04-15T08:41:23;96330.94;;;10.78;100.00
21817;BME280;13247;47.504;7.382;2023-04-15T08:44:09;96332.16;;;11.07;100.00
21817;BME280;13247;47.504;7.382;2023-04-15T08:46:55;96336.81;;;10.83;100.00
21817;BME280;13247;47.504;7.382;2023-04-15T08:49:42;96344.19;;;10.75;100.00
21817;BME280;13247;47.504;7.382;2023-04-15T08:52:27;96345.91;;;10.57;100.00
21817;BME280;13247;47.504;7.382;2023-04-15T08:55:13;96342.50;;;10.18;100.00
21817;BME280;13247;47.504;7.382;2023-04-15T08:57:59;96347.13;;;10.32;100.00
21817;BME280;13247;47.504;7.382;2023-04-15T09:00:45;96344.72;;;9.88;100.00
21817;BME280;13247;47.504;7.382;2023-04-15T09:03:31;96355.22;;;9.88;100.00
21817;BME280;13247;47.504;7.382;2023-04-15T09:06:17;96351.59;;;10.11;100.00
21817;BME280;13247;47.504;7.382;2023-04-15T09:09:02;96360.84;;;10.18;100.00
21817;BME280;13247;47.504;7.382;2023-04-15T09:11:46;96360.63;;;10.22;100.00
21817;BME280;13247;47.504;7.382;2023-04-15T09:14:33;96368.00;;;10.14;100.00
21817;BME280;13247;47.504;7.382;2023-04-15T09:17:19;96369.84;;;10.12;100.00
21817;BME280;13247;47.504;7.382;2023-04-15T09:20:13;96379.16;;;9.59;100.00
21817;BME280;13247;47.504;7.382;2023-04-15T09:22:58;96387.28;;;9.53;100.00
21817;BME280;13247;47.504;7.382;2023-04-15T09:25:43;96381.50;;;9.45;100.00
21817;BME280;13247;47.504;7.382;2023-04-15T09:28:29;96390.84;;;9.91;100.00
21817;BME280;13247;47.504;7.382;2023-04-15T09:31:14;96395.41;;;10.06;100.00
21817;BME280;13247;47.504;7.382;2023-04-15T09:33:59;96386.97;;;9.99;100.00
21817;BME280;13247;47.504;7.382;2023-04-15T09:39:51;96394.38;;;10.49;100.00
21817;BME280;13247;47.504;7.382;2023-04-15T09:42:36;96389.81;;;10.71;100.00
21817;BME280;13247;47.504;7.382;2023-04-15T09:45:22;96391.53;;;10.53;100.00
21817;BME280;13247;47.504;7.382;2023-04-15T09:48:24;96400.88;;;10.59;100.00
21817;BME280;13247;47.504;7.382;2023-04-15T09:51:10;96404.56;;;10.55;100.00
21817;BME280;13247;47.504;7.382;2023-04-15T09:53:55;96411.28;;;10.03;100.00
21817;BME280;13247;47.504;7.382;2023-04-15T09:56:41;96411.47;;;10.18;100.00
21817;BME280;13247;47.504;7.382;2023-04-15T09:59:25;96407.56;;;10.66;100.00
21817;BME280;13247;47.504;7.382;2023-04-15T10:02:11;96409.72;;;10.56;100.00
21817;BME280;13247;47.504;7.382;2023-04-15T10:04:56;96419.03;;;10.45;100.00
21817;BME280;13247;47.504;7.382;2023-04-15T10:07:42;96424.53;;;10.20;100.00
21817;BME280;13247;47.504;7.382;2023-04-15T10:10:27;96425.84;;;10.28;100.00
21817;BME280;13247;47.504;7.382;2023-04-15T10:13:20;96420.66;;;10.66;100.00
21817;BME280;13247;47.504;7.382;2023-04-15T10:16:12;96426.28;;;10.94;100.00
21817;BME280;13247;47.504;7.382;2023-04-15T10:19:01;96431.00;;;10.69;100.00
21817;BME280;13247;47.504;7.382;2023-04-15T10:21:46;96432.66;;;11.07;100.00
21817;BME280;13247;47.504;7.382;2023-04-15T10:24:31;96431.78;;;10.89;100.00
21817;BME280;13247;47.504;7.382;2023-04-15T10:27:17;96438.03;;;10.87;100.00
21817;BME280;13247;47.504;7.382;2023-04-15T10:30:03;96442.69;;;10.99;100.00
21817;BME280;13247;47.504;7.382;2023-04-15T10:32:49;96457.06;;;10.90;100.00
21817;BME280;13247;47.504;7.382;2023-04-15T10:35:35;96451.03;;;10.88;100.00
21817;BME280;13247;47.504;7.382;2023-04-15T10:38:38;96455.03;;;10.60;100.00
21817;BME280;13247;47.504;7.382;2023-04-15T10:41:25;96468.91;;;10.23;100.00
21817;BME280;13247;47.504;7.382;2023-04-15T10:44:11;96476.97;;;10.39;100.00
21817;BME280;13247;47.504;7.382;2023-04-15T10:46:58;96474.13;;;10.43;100.00
21817;BME280;13247;47.504;7.382;2023-04-15T10:50:17;96484.31;;;10.31;100.00
21817;BME280;13247;47.504;7.382;2023-04-15T10:53:01;96474.69;;;10.50;100.00
21817;BME280;13247;47.504;7.382;2023-04-15T10:55:46;96476.84;;;10.97;100.00
21817;BME280;13247;47.504;7.382;2023-04-15T10:58:41;96481.88;;;10.65;100.00
21817;BME280;13247;47.504;7.382;2023-04-15T11:01:49;96492.78;;;9.95;100.00
21817;BME280;13247;47.504;7.382;2023-04-15T11:04:53;96493.94;;;10.30;100.00
21817;BME280;13247;47.504;7.382;2023-04-15T11:07:52;96489.69;;;11.03;100.00
21817;BME280;13247;47.504;7.382;2023-04-15T11:13:23;96496.00;;;10.99;100.00
21817;BME280;13247;47.504;7.382;2023-04-15T11:16:10;96493.78;;;11.09;100.00
21817;BME280;13247;47.504;7.382;2023-04-15T11:18:55;96504.22;;;11.11;100.00
21817;BME280;13247;47.504;7.382;2023-04-15T11:21:40;96500.00;;;11.44;100.00
21817;BME280;13247;47.504;7.382;2023-04-15T11:24:25;96503.78;;;11.38;100.00
21817;BME280;13247;47.504;7.382;2023-04-15T11:27:22;96509.03;;;11.38;100.00
21817;BME280;13247;47.504;7.382;2023-04-15T11:30:18;96511.91;;;11.51;100.00
21817;BME280;13247;47.504;7.382;2023-04-15T11:33:07;96505.63;;;11.18;100.00
21817;BME280;13247;47.504;7.382;2023-04-15T11:35:53;96517.34;;;11.29;100.00
21817;BME280;13247;47.504;7.382;2023-04-15T11:38:42;96527.38;;;10.44;100.00
21817;BME280;13247;47.504;7.382;2023-04-15T11:41:27;96527.47;;;10.99;100.00
21817;BME280;13247;47.504;7.382;2023-04-15T11:44:18;96524.75;;;11.20;100.00
21817;BME280;13247;47.504;7.382;2023-04-15T11:47:22;96535.13;;;11.04;100.00
21817;BME280;13247;47.504;7.382;2023-04-15T11:50:34;96535.34;;;11.18;100.00
21817;BME280;13247;47.504;7.382;2023-04-15T11:53:19;96539.22;;;11.28;100.00
21817;BME280;13247;47.504;7.382;2023-04-15T11:56:04;96553.91;;;11.69;100.00
21817;BME280;13247;47.504;7.382;2023-04-15T11:58:52;96551.16;;;11.35;100.00
21817;BME280;13247;47.504;7.382;2023-04-15T12:01:38;96561.13;;;11.64;100.00
21817;BME280;13247;47.504;7.382;2023-04-15T12:04:23;96566.88;;;11.54;100.00
21817;BME280;13247;47.504;7.382;2023-04-15T12:07:08;96577.25;;;11.57;100.00
21817;BME280;13247;47.504;7.382;2023-04-15T12:09:56;96585.94;;;11.40;100.00
21817;BME280;13247;47.504;7.382;2023-04-15T12:12:41;96593.31;;;10.75;100.00
21817;BME280;13247;47.504;7.382;2023-04-15T12:15:26;96588.56;;;10.83;100.00
21817;BME280;13247;47.504;7.382;2023-04-15T12:18:18;96595.38;;;11.99;100.00
21817;BME280;13247;47.504;7.382;2023-04-15T12:21:13;96586.88;;;13.29;100.00
21817;BME280;13247;47.504;7.382;2023-04-15T12:24:02;96590.19;;;12.33;100.00
21817;BME280;13247;47.504;7.382;2023-04-15T12:26:55;96602.69;;;12.62;100.00
21817;BME280;13247;47.504;7.382;2023-04-15T12:29:42;96594.56;;;12.67;100.00
21817;BME280;13247;47.504;7.382;2023-04-15T12:32:33;96597.44;;;12.62;100.00
21817;BME280;13247;47.504;7.382;2023-04-15T12:35:18;96590.19;;;12.33;100.00
21817;BME280;13247;47.504;7.382;2023-04-15T12:38:04;96597.28;;;12.14;100.00
21817;BME280;13247;47.504;7.382;2023-04-15T12:40:49;96608.19;;;12.40;100.00
21817;BME280;13247;47.504;7.382;2023-04-15T12:43:34;96602.06;;;12.40;100.00
21817;BME280;13247;47.504;7.382;2023-04-15T12:46:19;96619.34;;;12.63;100.00
21817;BME280;13247;47.504;7.382;2023-04-15T12:49:04;96630.19;;;12.04;100.00
21817;BME280;13247;47.504;7.382;2023-04-15T12:51:49;96640.59;;;11.69;100.00
21817;BME280;13247;47.504;7.382;2023-04-15T12:54:34;96642.81;;;11.40;100.00
21817;BME280;13247;47.504;7.382;2023-04-15T12:57:19;96639.56;;;11.91;100.00
21817;BME280;13247;47.504;7.382;2023-04-15T13:00:05;96650.34;;;11.47;100.00
21817;BME280;13247;47.504;7.382;2023-04-15T13:02:51;96644.94;;;11.50;100.00
21817;BME280;13247;47.504;7.382;2023-04-15T13:05:36;96654.03;;;11.43;100.00
21817;BME280;13247;47.504;7.382;2023-04-15T13:08:22;96655.00;;;11.41;100.00
21817;BME280;13247;47.504;7.382;2023-04-15T13:11:07;96653.31;;;11.58;100.00
21817;BME280;13247;47.504;7.382;2023-04-15T13:13:52;96660.59;;;11.91;100.00
21817;BME280;13247;47.504;7.382;2023-04-15T13:16:36;96662.03;;;12.15;100.00
21817;BME280;13247;47.504;7.382;2023-04-15T13:19:21;96667.75;;;12.23;100.00
21817;BME280;13247;47.504;7.382;2023-04-15T13:22:05;96675.94;;;12.17;100.00
21817;BME280;13247;47.504;7.382;2023-04-15T13:24:51;96682.03;;;11.81;100.00
21817;BME280;13247;47.504;7.382;2023-04-15T13:27:36;96681.84;;;11.66;100.00
21817;BME280;13247;47.504;7.382;2023-04-15T13:30:21;96674.81;;;12.22;100.00
21817;BME280;13247;47.504;7.382;2023-04-15T13:33:05;96697.91;;;11.78;100.00
21817;BME280;13247;47.504;7.382;2023-04-15T13:35:50;96699.50;;;11.82;100.00
21817;BME280;13247;47.504;7.382;2023-04-15T13:38:35;96697.13;;;11.76;100.00
21817;BME280;13247;47.504;7.382;2023-04-15T13:41:20;96703.19;;;11.97;100.00
21817;BME280;13247;47.504;7.382;2023-04-15T13:44:05;96710.84;;;12.20;100.00
21817;BME280;13247;47.504;7.382;2023-04-15T13:46:51;96708.00;;;12.25;100.00
21817;BME280;13247;47.504;7.382;2023-04-15T13:49:35;96709.91;;;12.57;100.00
21817;BME280;13247;47.504;7.382;2023-04-15T13:52:20;96711.31;;;12.64;100.00
21817;BME280;13247;47.504;7.382;2023-04-15T13:55:05;96717.81;;;12.74;100.00
21817;BME280;13247;47.504;7.382;2023-04-15T13:57:50;96731.88;;;12.20;100.00
21817;BME280;13247;47.504;7.382;2023-04-15T14:00:34;96734.53;;;12.19;100.00
21817;BME280;13247;47.504;7.382;2023-04-15T14:03:19;96724.25;;;12.33;100.00
21817;BME280;13247;47.504;7.382;2023-04-15T14:06:05;96736.00;;;12.07;100.00
21817;BME280;13247;47.504;7.382;2023-04-15T14:08:50;96729.81;;;12.44;100.00
21817;BME280;13247;47.504;7.382;2023-04-15T14:11:37;96740.25;;;12.28;100.00
21817;BME280;13247;47.504;7.382;2023-04-15T14:14:22;96750.16;;;12.40;100.00
21817;BME280;13247;47.504;7.382;2023-04-15T14:17:06;96744.47;;;12.49;100.00
21817;BME280;13247;47.504;7.382;2023-04-15T14:19:51;96750.47;;;12.87;100.00
21817;BME280;13247;47.504;7.382;2023-04-15T14:22:36;96756.22;;;12.95;100.00
21817;BME280;13247;47.504;7.382;2023-04-15T14:25:20;96747.16;;;12.84;100.00
21817;BME280;13247;47.504;7.382;2023-04-15T14:28:05;96748.50;;;13.09;100.00
21817;BME280;13247;47.504;7.382;2023-04-15T14:30:49;96746.78;;;12.91;100.00
21817;BME280;13247;47.504;7.382;2023-04-15T14:33:34;96753.75;;;12.92;100.00
21817;BME280;13247;47.504;7.382;2023-04-15T14:36:19;96754.31;;;12.46;100.00
21817;BME280;13247;47.504;7.382;2023-04-15T14:39:04;96751.31;;;12.71;100.00